sensor_id;sensor_type;location;lat;lon;timestamp;temperature;humidity
5899;DHT22;2975;50.956;6.962;2022-08-03T00:00:39;21.50;99.90
5899;DHT22;2975;50.956;6.962;2022-08-03T00:03:05;21.60;99.90
5899;DHT22;2975;50.956;6.962;2022-08-03T00:05:30;21.60;99.90
5899;DHT22;2975;50.956;6.962;2022-08-03T00:07:58;21.50;99.90
5899;DHT22;2975;50.956;6.962;2022-08-03T00:10:24;21.60;99.90
5899;DHT22;2975;50.956;6.962;2022-08-03T00:12:50;21.50;99.90
5899;DHT22;2975;50.956;6.962;2022-08-03T00:15:16;21.50;99.90
5899;DHT22;2975;50.956;6.962;2022-08-03T00:17:42;21.50;99.90
5899;DHT22;2975;50.956;6.962;2022-08-03T00:20:08;21.40;99.90
5899;DHT22;2975;50.956;6.962;2022-08-03T00:22:34;21.40;99.90
5899;DHT22;2975;50.956;6.962;2022-08-03T00:25:00;21.40;99.90
5899;DHT22;2975;50.956;6.962;2022-08-03T00:27:25;21.30;99.90
5899;DHT22;2975;50.956;6.962;2022-08-03T00:29:51;21.30;99.90
5899;DHT22;2975;50.956;6.962;2022-08-03T00:32:16;21.30;99.90
5899;DHT22;2975;50.956;6.962;2022-08-03T00:34:42;21.20;99.90
5899;DHT22;2975;50.956;6.962;2022-08-03T00:37:08;21.20;99.90
5899;DHT22;2975;50.956;6.962;2022-08-03T00:39:33;21.20;99.90
5899;DHT22;2975;50.956;6.962;2022-08-03T00:42:03;21.10;99.90
5899;DHT22;2975;50.956;6.962;2022-08-03T00:44:29;21.10;99.90
5899;DHT22;2975;50.956;6.962;2022-08-03T00:46:55;21.10;99.90
5899;DHT22;2975;50.956;6.962;2022-08-03T00:49:20;21.10;99.90
5899;DHT22;2975;50.956;6.962;2022-08-03T00:51:46;21.10;99.90
5899;DHT22;2975;50.956;6.962;2022-08-03T00:54:13;21.10;99.90
5899;DHT22;2975;50.956;6.962;2022-08-03T00:56:40;21.10;99.90
5899;DHT22;2975;50.956;6.962;2022-08-03T00:59:05;21.00;99.90
5899;DHT22;2975;50.956;6.962;2022-08-03T01:01:31;21.00;99.90
5899;DHT22;2975;50.956;6.962;2022-08-03T01:03:57;21.00;99.90
5899;DHT22;2975;50.956;6.962;2022-08-03T01:06:49;21.00;99.90
5899;DHT22;2975;50.956;6.962;2022-08-03T01:12:12;20.90;99.90
5899;DHT22;2975;50.956;6.962;2022-08-03T01:14:54;21.00;99.90
5899;DHT22;2975;50.956;6.962;2022-08-03T01:17:39;21.10;99.90
5899;DHT22;2975;50.956;6.962;2022-08-03T01:20:12;21.00;99.90
5899;DHT22;2975;50.956;6.962;2022-08-03T01:23:09;21.00;99.90
5899;DHT22;2975;50.956;6.962;2022-08-03T01:31:12;20.90;99.90
5899;DHT22;2975;50.956;6.962;2022-08-03T01:33:44;20.90;99.90
5899;DHT22;2975;50.956;6.962;2022-08-03T01:36:15;20.80;99.90
5899;DHT22;2975;50.956;6.962;2022-08-03T01:38:45;20.80;99.90
5899;DHT22;2975;50.956;6.962;2022-08-03T01:41:19;20.70;99.90
5899;DHT22;2975;50.956;6.962;2022-08-03T01:43:47;20.70;99.90
5899;DHT22;2975;50.956;6.962;2022-08-03T01:46:16;20.70;99.90
5899;DHT22;2975;50.956;6.962;2022-08-03T01:48:44;20.70;99.90
5899;DHT22;2975;50.956;6.962;2022-08-03T01:51:11;20.70;99.90
5899;DHT22;2975;50.956;6.962;2022-08-03T01:53:40;20.70;99.90
5899;DHT22;2975;50.956;6.962;2022-08-03T01:56:09;20.70;99.90
5899;DHT22;2975;50.956;6.962;2022-08-03T01:58:36;20.70;99.90
5899;DHT22;2975;50.956;6.962;2022-08-03T02:01:04;20.60;99.90
5899;DHT22;2975;50.956;6.962;2022-08-03T02:03:33;20.60;99.90
5899;DHT22;2975;50.956;6.962;2022-08-03T02:06:01;20.70;99.90
5899;DHT22;2975;50.956;6.962;2022-08-03T02:08:28;20.70;99.90
5899;DHT22;2975;50.956;6.962;2022-08-03T02:10:56;20.80;99.90
5899;DHT22;2975;50.956;6.962;2022-08-03T02:13:23;20.90;99.90
5899;DHT22;2975;50.956;6.962;2022-08-03T02:15:51;20.90;99.90
5899;DHT22;2975;50.956;6.962;2022-08-03T02:18:17;21.00;99.90
5899;DHT22;2975;50.956;6.962;2022-08-03T02:20:45;21.00;99.90
5899;DHT22;2975;50.956;6.962;2022-08-03T02:23:13;20.90;99.90
5899;DHT22;2975;50.956;6.962;2022-08-03T02:25:44;20.90;99.90
5899;DHT22;2975;50.956;6.962;2022-08-03T02:28:17;20.90;99.90
5899;DHT22;2975;50.956;6.962;2022-08-03T02:30:45;20.80;99.90
5899;DHT22;2975;50.956;6.962;2022-08-03T02:33:27;20.80;99.90
5899;DHT22;2975;50.956;6.962;2022-08-03T02:35:56;20.70;99.90
5899;DHT22;2975;50.956;6.962;2022-08-03T02:38:27;20.70;99.90
5899;DHT22;2975;50.956;6.962;2022-08-03T02:40:57;20.60;99.90
5899;DHT22;2975;50.956;6.962;2022-08-03T02:43:24;20.60;99.90
5899;DHT22;2975;50.956;6.962;2022-08-03T02:45:52;20.50;99.90
5899;DHT22;2975;50.956;6.962;2022-08-03T02:48:26;20.50;99.90
5899;DHT22;2975;50.956;6.962;2022-08-03T02:50:54;20.50;99.90
5899;DHT22;2975;50.956;6.962;2022-08-03T02:53:22;20.40;99.90
5899;DHT22;2975;50.956;6.962;2022-08-03T02:55:48;20.30;99.90
5899;DHT22;2975;50.956;6.962;2022-08-03T02:58:17;20.30;99.90
5899;DHT22;2975;50.956;6.962;2022-08-03T03:00:46;20.30;99.90
5899;DHT22;2975;50.956;6.962;2022-08-03T03:03:13;20.20;99.90
5899;DHT22;2975;50.956;6.962;2022-08-03T03:05:40;20.20;99.90
5899;DHT22;2975;50.956;6.962;2022-08-03T03:08:07;20.20;99.90
5899;DHT22;2975;50.956;6.962;2022-08-03T03:10:35;20.10;99.90
5899;DHT22;2975;50.956;6.962;2022-08-03T03:13:01;20.10;99.90
5899;DHT22;2975;50.956;6.962;2022-08-03T03:15:28;20.10;99.90
5899;DHT22;2975;50.956;6.962;2022-08-03T03:17:56;20.00;99.90
5899;DHT22;2975;50.956;6.962;2022-08-03T03:20:23;20.00;99.90
5899;DHT22;2975;50.956;6.962;2022-08-03T03:22:49;20.00;99.90
5899;DHT22;2975;50.956;6.962;2022-08-03T03:25:16;20.10;99.90
5899;DHT22;2975;50.956;6.962;2022-08-03T03:27:42;20.20;99.90
5899;DHT22;2975;50.956;6.962;2022-08-03T03:30:08;20.20;99.90
5899;DHT22;2975;50.956;6.962;2022-08-03T03:32:34;20.10;99.90
5899;DHT22;2975;50.956;6.962;2022-08-03T03:35:05;20.10;99.90
5899;DHT22;2975;50.956;6.962;2022-08-03T03:37:31;20.00;99.90
5899;DHT22;2975;50.956;6.962;2022-08-03T03:39:56;20.00;99.90
5899;DHT22;2975;50.956;6.962;2022-08-03T03:42:22;20.00;99.90
5899;DHT22;2975;50.956;6.962;2022-08-03T03:44:49;20.00;99.90
5899;DHT22;2975;50.956;6.962;2022-08-03T03:47:15;20.00;99.90
5899;DHT22;2975;50.956;6.962;2022-08-03T03:49:40;19.90;99.90
5899;DHT22;2975;50.956;6.962;2022-08-03T03:52:07;19.90;99.90
5899;DHT22;2975;50.956;6.962;2022-08-03T03:54:43;19.90;99.90
5899;DHT22;2975;50.956;6.962;2022-08-03T03:57:10;19.90;99.90
5899;DHT22;2975;50.956;6.962;2022-08-03T03:59:40;20.00;99.90
5899;DHT22;2975;50.956;6.962;2022-08-03T04:02:07;20.10;99.90
5899;DHT22;2975;50.956;6.962;2022-08-03T04:04:33;20.30;99.90
5899;DHT22;2975;50.956;6.962;2022-08-03T04:07:18;20.40;99.90
5899;DHT22;2975;50.956;6.962;2022-08-03T04:10:13;20.40;99.90
5899;DHT22;2975;50.956;6.962;2022-08-03T04:12:59;20.40;99.90
5899;DHT22;2975;50.956;6.962;2022-08-03T04:15:27;20.40;99.90
5899;DHT22;2975;50.956;6.962;2022-08-03T04:17:56;20.40;99.90
5899;DHT22;2975;50.956;6.962;2022-08-03T04:20:25;20.40;99.90
5899;DHT22;2975;50.956;6.962;2022-08-03T04:22:53;20.40;99.90
5899;DHT22;2975;50.956;6.962;2022-08-03T04:25:20;20.40;99.90
5899;DHT22;2975;50.956;6.962;2022-08-03T04:27:48;20.40;99.90
5899;DHT22;2975;50.956;6.962;2022-08-03T04:30:17;20.50;99.90
5899;DHT22;2975;50.956;6.962;2022-08-03T04:32:44;20.50;99.90
5899;DHT22;2975;50.956;6.962;2022-08-03T04:35:17;20.50;99.90
5899;DHT22;2975;50.956;6.962;2022-08-03T04:37:45;20.60;99.90
5899;DHT22;2975;50.956;6.962;2022-08-03T04:40:26;20.60;99.90
5899;DHT22;2975;50.956;6.962;2022-08-03T04:42:54;20.80;99.90
5899;DHT22;2975;50.956;6.962;2022-08-03T04:45:21;20.90;99.90
5899;DHT22;2975;50.956;6.962;2022-08-03T04:47:49;21.10;99.90
5899;DHT22;2975;50.956;6.962;2022-08-03T04:50:15;21.10;99.90
5899;DHT22;2975;50.956;6.962;2022-08-03T04:52:41;21.00;99.90
5899;DHT22;2975;50.956;6.962;2022-08-03T04:55:07;21.00;99.90
5899;DHT22;2975;50.956;6.962;2022-08-03T04:57:32;21.10;99.90
5899;DHT22;2975;50.956;6.962;2022-08-03T04:59:58;21.20;99.90
5899;DHT22;2975;50.956;6.962;2022-08-03T05:02:24;21.50;99.90
5899;DHT22;2975;50.956;6.962;2022-08-03T05:04:49;21.70;99.90
5899;DHT22;2975;50.956;6.962;2022-08-03T05:07:16;22.00;99.90
5899;DHT22;2975;50.956;6.962;2022-08-03T05:09:43;22.60;99.10
5899;DHT22;2975;50.956;6.962;2022-08-03T05:12:09;23.50;98.70
5899;DHT22;2975;50.956;6.962;2022-08-03T05:14:35;24.50;96.90
5899;DHT22;2975;50.956;6.962;2022-08-03T05:17:05;25.90;94.60
5899;DHT22;2975;50.956;6.962;2022-08-03T05:19:31;27.10;91.60
5899;DHT22;2975;50.956;6.962;2022-08-03T05:21:57;27.40;90.50
5899;DHT22;2975;50.956;6.962;2022-08-03T05:24:23;27.70;90.10
5899;DHT22;2975;50.956;6.962;2022-08-03T05:26:48;28.40;88.20
5899;DHT22;2975;50.956;6.962;2022-08-03T05:29:14;29.00;85.30
5899;DHT22;2975;50.956;6.962;2022-08-03T05:31:39;29.70;83.30
5899;DHT22;2975;50.956;6.962;2022-08-03T05:34:06;30.90;80.30
5899;DHT22;2975;50.956;6.962;2022-08-03T05:36:31;31.60;78.00
5899;DHT22;2975;50.956;6.962;2022-08-03T05:38:57;32.30;75.20
5899;DHT22;2975;50.956;6.962;2022-08-03T05:41:23;32.30;73.30
5899;DHT22;2975;50.956;6.962;2022-08-03T05:43:49;32.70;74.10
5899;DHT22;2975;50.956;6.962;2022-08-03T05:46:14;34.10;71.20
5899;DHT22;2975;50.956;6.962;2022-08-03T05:48:41;35.30;68.00
5899;DHT22;2975;50.956;6.962;2022-08-03T05:51:07;35.90;64.10
5899;DHT22;2975;50.956;6.962;2022-08-03T05:53:35;36.50;62.60
5899;DHT22;2975;50.956;6.962;2022-08-03T05:56:02;37.00;60.40
5899;DHT22;2975;50.956;6.962;2022-08-03T05:58:27;37.60;57.90
5899;DHT22;2975;50.956;6.962;2022-08-03T06:00:53;37.40;57.60
5899;DHT22;2975;50.956;6.962;2022-08-03T06:03:19;37.50;56.80
5899;DHT22;2975;50.956;6.962;2022-08-03T06:05:45;36.70;56.80
5899;DHT22;2975;50.956;6.962;2022-08-03T06:08:10;35.80;58.50
5899;DHT22;2975;50.956;6.962;2022-08-03T06:10:36;36.40;58.10
5899;DHT22;2975;50.956;6.962;2022-08-03T06:13:02;37.30;56.70
5899;DHT22;2975;50.956;6.962;2022-08-03T06:15:28;37.80;55.20
5899;DHT22;2975;50.956;6.962;2022-08-03T06:17:55;37.30;55.30
5899;DHT22;2975;50.956;6.962;2022-08-03T06:20:22;37.20;55.10
5899;DHT22;2975;50.956;6.962;2022-08-03T06:22:48;37.40;54.60
5899;DHT22;2975;50.956;6.962;2022-08-03T06:25:13;37.50;54.40
5899;DHT22;2975;50.956;6.962;2022-08-03T06:27:39;38.00;53.30
5899;DHT22;2975;50.956;6.962;2022-08-03T06:30:09;38.10;52.80
5899;DHT22;2975;50.956;6.962;2022-08-03T06:32:39;36.70;54.00
5899;DHT22;2975;50.956;6.962;2022-08-03T06:35:06;35.70;55.20
5899;DHT22;2975;50.956;6.962;2022-08-03T06:37:43;33.40;57.00
5899;DHT22;2975;50.956;6.962;2022-08-03T06:40:29;30.90;61.80
5899;DHT22;2975;50.956;6.962;2022-08-03T06:43:00;29.20;65.70
5899;DHT22;2975;50.956;6.962;2022-08-03T06:45:27;27.60;71.70
5899;DHT22;2975;50.956;6.962;2022-08-03T06:48:19;26.80;75.00
5899;DHT22;2975;50.956;6.962;2022-08-03T06:50:45;26.20;78.30
5899;DHT22;2975;50.956;6.962;2022-08-03T06:53:10;25.80;80.50
5899;DHT22;2975;50.956;6.962;2022-08-03T06:55:36;25.60;82.70
5899;DHT22;2975;50.956;6.962;2022-08-03T06:58:02;25.40;84.40
5899;DHT22;2975;50.956;6.962;2022-08-03T07:00:28;25.30;85.90
5899;DHT22;2975;50.956;6.962;2022-08-03T07:02:55;25.10;87.50
5899;DHT22;2975;50.956;6.962;2022-08-03T07:05:35;25.00;88.90
5899;DHT22;2975;50.956;6.962;2022-08-03T07:08:01;24.90;90.00
5899;DHT22;2975;50.956;6.962;2022-08-03T07:10:27;24.90;90.10
5899;DHT22;2975;50.956;6.962;2022-08-03T07:12:53;25.00;90.30
5899;DHT22;2975;50.956;6.962;2022-08-03T07:15:19;25.00;90.30
5899;DHT22;2975;50.956;6.962;2022-08-03T07:17:45;25.10;90.50
5899;DHT22;2975;50.956;6.962;2022-08-03T07:20:11;25.00;90.70
5899;DHT22;2975;50.956;6.962;2022-08-03T07:22:38;25.00;90.70
5899;DHT22;2975;50.956;6.962;2022-08-03T07:25:04;25.10;90.70
5899;DHT22;2975;50.956;6.962;2022-08-03T07:27:29;25.20;90.60
5899;DHT22;2975;50.956;6.962;2022-08-03T07:29:56;25.30;90.60
5899;DHT22;2975;50.956;6.962;2022-08-03T07:32:22;25.50;90.20
5899;DHT22;2975;50.956;6.962;2022-08-03T07:34:48;25.50;90.20
5899;DHT22;2975;50.956;6.962;2022-08-03T07:37:14;25.50;90.20
5899;DHT22;2975;50.956;6.962;2022-08-03T07:39:39;25.50;90.30
5899;DHT22;2975;50.956;6.962;2022-08-03T07:42:05;25.50;90.30
5899;DHT22;2975;50.956;6.962;2022-08-03T07:44:31;25.60;90.20
5899;DHT22;2975;50.956;6.962;2022-08-03T07:46:56;25.70;90.00
5899;DHT22;2975;50.956;6.962;2022-08-03T07:49:22;25.90;90.00
5899;DHT22;2975;50.956;6.962;2022-08-03T07:51:47;26.10;89.00
5899;DHT22;2975;50.956;6.962;2022-08-03T07:54:36;26.10;88.80
5899;DHT22;2975;50.956;6.962;2022-08-03T07:57:02;26.20;88.50
5899;DHT22;2975;50.956;6.962;2022-08-03T07:59:27;26.20;88.60
5899;DHT22;2975;50.956;6.962;2022-08-03T08:01:53;26.30;88.60
5899;DHT22;2975;50.956;6.962;2022-08-03T08:04:19;26.40;87.80
5899;DHT22;2975;50.956;6.962;2022-08-03T08:06:44;26.50;87.40
5899;DHT22;2975;50.956;6.962;2022-08-03T08:09:10;26.50;87.40
5899;DHT22;2975;50.956;6.962;2022-08-03T08:11:36;26.50;87.40
5899;DHT22;2975;50.956;6.962;2022-08-03T08:14:02;26.50;87.10
5899;DHT22;2975;50.956;6.962;2022-08-03T08:16:29;26.50;87.10
5899;DHT22;2975;50.956;6.962;2022-08-03T08:18:55;26.50;86.90
5899;DHT22;2975;50.956;6.962;2022-08-03T08:21:21;26.60;86.60
5899;DHT22;2975;50.956;6.962;2022-08-03T08:23:46;26.60;86.40
5899;DHT22;2975;50.956;6.962;2022-08-03T08:26:12;26.60;86.20
5899;DHT22;2975;50.956;6.962;2022-08-03T08:28:38;26.60;86.30
5899;DHT22;2975;50.956;6.962;2022-08-03T08:31:04;26.50;86.30
5899;DHT22;2975;50.956;6.962;2022-08-03T08:33:29;26.50;86.40
5899;DHT22;2975;50.956;6.962;2022-08-03T08:35:55;26.50;86.40
5899;DHT22;2975;50.956;6.962;2022-08-03T08:38:22;26.50;86.40
5899;DHT22;2975;50.956;6.962;2022-08-03T08:40:48;26.50;86.80
5899;DHT22;2975;50.956;6.962;2022-08-03T08:43:14;26.70;86.50
5899;DHT22;2975;50.956;6.962;2022-08-03T08:45:40;26.90;85.70
5899;DHT22;2975;50.956;6.962;2022-08-03T08:48:07;26.80;85.70
5899;DHT22;2975;50.956;6.962;2022-08-03T08:50:36;26.90;85.60
5899;DHT22;2975;50.956;6.962;2022-08-03T08:53:06;26.90;85.40
5899;DHT22;2975;50.956;6.962;2022-08-03T08:55:33;26.90;85.60
5899;DHT22;2975;50.956;6.962;2022-08-03T08:58:03;26.90;85.70
5899;DHT22;2975;50.956;6.962;2022-08-03T09:00:30;27.00;85.10
5899;DHT22;2975;50.956;6.962;2022-08-03T09:02:57;27.10;85.40
5899;DHT22;2975;50.956;6.962;2022-08-03T09:05:23;27.10;84.70
5899;DHT22;2975;50.956;6.962;2022-08-03T09:07:48;27.10;84.50
5899;DHT22;2975;50.956;6.962;2022-08-03T09:10:16;27.10;84.70
5899;DHT22;2975;50.956;6.962;2022-08-03T09:12:48;27.30;84.00
5899;DHT22;2975;50.956;6.962;2022-08-03T09:15:22;27.30;83.90
5899;DHT22;2975;50.956;6.962;2022-08-03T09:17:50;27.40;83.60
5899;DHT22;2975;50.956;6.962;2022-08-03T09:20:17;27.30;84.00
5899;DHT22;2975;50.956;6.962;2022-08-03T09:23:03;27.20;84.20
5899;DHT22;2975;50.956;6.962;2022-08-03T09:25:42;27.40;83.10
5899;DHT22;2975;50.956;6.962;2022-08-03T09:30:34;27.80;81.60
5899;DHT22;2975;50.956;6.962;2022-08-03T09:33:03;28.10;79.80
5899;DHT22;2975;50.956;6.962;2022-08-03T09:35:28;28.20;79.70
5899;DHT22;2975;50.956;6.962;2022-08-03T09:38:18;28.20;79.90
5899;DHT22;2975;50.956;6.962;2022-08-03T09:40:48;28.10;80.60
5899;DHT22;2975;50.956;6.962;2022-08-03T09:43:14;28.10;79.90
5899;DHT22;2975;50.956;6.962;2022-08-03T09:45:40;28.10;79.70
5899;DHT22;2975;50.956;6.962;2022-08-03T09:48:27;28.20;79.50
5899;DHT22;2975;50.956;6.962;2022-08-03T09:50:56;28.30;78.80
5899;DHT22;2975;50.956;6.962;2022-08-03T09:53:22;28.50;77.30
5899;DHT22;2975;50.956;6.962;2022-08-03T09:56:01;28.70;76.30
5899;DHT22;2975;50.956;6.962;2022-08-03T09:58:28;28.90;75.40
5899;DHT22;2975;50.956;6.962;2022-08-03T10:00:58;29.10;75.50
5899;DHT22;2975;50.956;6.962;2022-08-03T10:03:26;29.10;75.00
5899;DHT22;2975;50.956;6.962;2022-08-03T10:05:53;29.20;74.90
5899;DHT22;2975;50.956;6.962;2022-08-03T10:08:19;29.20;74.80
5899;DHT22;2975;50.956;6.962;2022-08-03T10:10:47;29.10;74.70
5899;DHT22;2975;50.956;6.962;2022-08-03T10:13:15;29.50;73.70
5899;DHT22;2975;50.956;6.962;2022-08-03T10:15:41;29.70;73.40
5899;DHT22;2975;50.956;6.962;2022-08-03T10:18:07;29.50;71.40
5899;DHT22;2975;50.956;6.962;2022-08-03T10:20:50;29.40;69.70
5899;DHT22;2975;50.956;6.962;2022-08-03T10:23:17;29.30;69.00
5899;DHT22;2975;50.956;6.962;2022-08-03T10:25:45;29.30;70.40
5899;DHT22;2975;50.956;6.962;2022-08-03T10:28:15;29.30;70.00
5899;DHT22;2975;50.956;6.962;2022-08-03T10:30:46;29.30;70.30
5899;DHT22;2975;50.956;6.962;2022-08-03T10:33:17;29.40;69.70
5899;DHT22;2975;50.956;6.962;2022-08-03T10:35:45;29.30;71.50
5899;DHT22;2975;50.956;6.962;2022-08-03T10:38:19;29.40;69.70
5899;DHT22;2975;50.956;6.962;2022-08-03T10:40:47;29.60;70.20
5899;DHT22;2975;50.956;6.962;2022-08-03T10:43:23;29.80;70.40
5899;DHT22;2975;50.956;6.962;2022-08-03T10:45:50;29.50;71.30
5899;DHT22;2975;50.956;6.962;2022-08-03T10:48:17;29.40;70.10
5899;DHT22;2975;50.956;6.962;2022-08-03T10:50:44;29.40;69.20
5899;DHT22;2975;50.956;6.962;2022-08-03T10:53:10;29.50;69.60
5899;DHT22;2975;50.956;6.962;2022-08-03T10:55:41;29.50;68.30
5899;DHT22;2975;50.956;6.962;2022-08-03T10:58:53;29.60;68.20
5899;DHT22;2975;50.956;6.962;2022-08-03T11:01:48;29.60;68.90
5899;DHT22;2975;50.956;6.962;2022-08-03T11:04:18;29.80;69.00
5899;DHT22;2975;50.956;6.962;2022-08-03T11:06:45;29.80;69.40
5899;DHT22;2975;50.956;6.962;2022-08-03T11:11:39;29.70;69.10
5899;DHT22;2975;50.956;6.962;2022-08-03T11:16:34;29.90;69.70
5899;DHT22;2975;50.956;6.962;2022-08-03T11:19:05;30.10;69.60
5899;DHT22;2975;50.956;6.962;2022-08-03T11:27:20;30.70;67.20
5899;DHT22;2975;50.956;6.962;2022-08-03T11:30:07;30.80;66.70
5899;DHT22;2975;50.956;6.962;2022-08-03T11:35:09;30.60;66.70
5899;DHT22;2975;50.956;6.962;2022-08-03T11:37:36;30.50;67.50
5899;DHT22;2975;50.956;6.962;2022-08-03T11:40:46;30.60;67.30
5899;DHT22;2975;50.956;6.962;2022-08-03T11:46:06;30.80;66.10
5899;DHT22;2975;50.956;6.962;2022-08-03T11:48:40;30.90;65.20
5899;DHT22;2975;50.956;6.962;2022-08-03T11:53:44;31.10;65.10
5899;DHT22;2975;50.956;6.962;2022-08-03T11:56:12;31.30;64.90
5899;DHT22;2975;50.956;6.962;2022-08-03T11:58:48;31.40;64.60
5899;DHT22;2975;50.956;6.962;2022-08-03T12:01:14;31.50;62.60
5899;DHT22;2975;50.956;6.962;2022-08-03T12:03:41;31.60;61.90
5899;DHT22;2975;50.956;6.962;2022-08-03T12:06:12;31.80;61.10
5899;DHT22;2975;50.956;6.962;2022-08-03T12:08:39;31.80;61.10
5899;DHT22;2975;50.956;6.962;2022-08-03T12:11:08;31.80;61.80
5899;DHT22;2975;50.956;6.962;2022-08-03T12:13:38;31.60;63.00
5899;DHT22;2975;50.956;6.962;2022-08-03T12:16:04;31.60;62.50
5899;DHT22;2975;50.956;6.962;2022-08-03T12:18:30;31.80;62.90
5899;DHT22;2975;50.956;6.962;2022-08-03T12:21:07;31.80;62.70
5899;DHT22;2975;50.956;6.962;2022-08-03T12:23:34;31.70;62.10
5899;DHT22;2975;50.956;6.962;2022-08-03T12:26:05;31.70;62.40
5899;DHT22;2975;50.956;6.962;2022-08-03T12:28:31;31.60;62.90
5899;DHT22;2975;50.956;6.962;2022-08-03T12:31:01;31.50;62.70
5899;DHT22;2975;50.956;6.962;2022-08-03T12:33:28;31.50;62.70
5899;DHT22;2975;50.956;6.962;2022-08-03T12:36:07;31.60;62.30
5899;DHT22;2975;50.956;6.962;2022-08-03T12:38:37;31.50;62.10
5899;DHT22;2975;50.956;6.962;2022-08-03T12:41:09;31.70;61.80
5899;DHT22;2975;50.956;6.962;2022-08-03T12:43:50;31.80;61.70
5899;DHT22;2975;50.956;6.962;2022-08-03T12:46:17;32.10;60.70
5899;DHT22;2975;50.956;6.962;2022-08-03T12:51:55;31.80;60.00
5899;DHT22;2975;50.956;6.962;2022-08-03T12:54:26;31.60;60.60
5899;DHT22;2975;50.956;6.962;2022-08-03T12:57:12;31.60;60.40
5899;DHT22;2975;50.956;6.962;2022-08-03T12:59:39;31.50;60.10
5899;DHT22;2975;50.956;6.962;2022-08-03T13:02:23;31.30;60.90
5899;DHT22;2975;50.956;6.962;2022-08-03T13:04:51;31.00;62.00
5899;DHT22;2975;50.956;6.962;2022-08-03T13:07:17;31.00;61.60
5899;DHT22;2975;50.956;6.962;2022-08-03T13:09:53;31.20;61.00
5899;DHT22;2975;50.956;6.962;2022-08-03T13:12:24;31.30;60.50
5899;DHT22;2975;50.956;6.962;2022-08-03T13:14:55;31.50;60.60
5899;DHT22;2975;50.956;6.962;2022-08-03T13:17:21;31.60;59.80
5899;DHT22;2975;50.956;6.962;2022-08-03T13:19:48;31.60;60.60
5899;DHT22;2975;50.956;6.962;2022-08-03T13:22:21;31.60;60.60
5899;DHT22;2975;50.956;6.962;2022-08-03T13:24:49;31.90;59.50
5899;DHT22;2975;50.956;6.962;2022-08-03T13:27:15;32.00;59.00
5899;DHT22;2975;50.956;6.962;2022-08-03T13:29:41;32.00;59.50
5899;DHT22;2975;50.956;6.962;2022-08-03T13:32:07;32.00;59.40
5899;DHT22;2975;50.956;6.962;2022-08-03T13:34:33;31.80;59.10
5899;DHT22;2975;50.956;6.962;2022-08-03T13:36:59;31.70;59.10
5899;DHT22;2975;50.956;6.962;2022-08-03T13:39:24;31.50;59.50
5899;DHT22;2975;50.956;6.962;2022-08-03T13:41:50;31.60;59.60
5899;DHT22;2975;50.956;6.962;2022-08-03T13:44:23;31.60;59.40
5899;DHT22;2975;50.956;6.962;2022-08-03T13:46:48;31.60;59.70
5899;DHT22;2975;50.956;6.962;2022-08-03T13:49:15;31.80;59.60
5899;DHT22;2975;50.956;6.962;2022-08-03T13:51:41;31.80;59.80
5899;DHT22;2975;50.956;6.962;2022-08-03T13:54:07;31.80;59.30
5899;DHT22;2975;50.956;6.962;2022-08-03T13:56:32;31.90;59.10
5899;DHT22;2975;50.956;6.962;2022-08-03T13:58:58;31.80;59.60
5899;DHT22;2975;50.956;6.962;2022-08-03T14:01:25;32.00;59.30
5899;DHT22;2975;50.956;6.962;2022-08-03T14:03:51;32.00;59.10
5899;DHT22;2975;50.956;6.962;2022-08-03T14:06:19;32.10;59.20
5899;DHT22;2975;50.956;6.962;2022-08-03T14:08:45;32.20;58.80
5899;DHT22;2975;50.956;6.962;2022-08-03T14:11:12;32.20;58.60
5899;DHT22;2975;50.956;6.962;2022-08-03T14:13:38;32.40;58.00
5899;DHT22;2975;50.956;6.962;2022-08-03T14:16:04;32.40;58.00
5899;DHT22;2975;50.956;6.962;2022-08-03T14:18:29;32.50;58.20
5899;DHT22;2975;50.956;6.962;2022-08-03T14:20:56;32.40;58.00
5899;DHT22;2975;50.956;6.962;2022-08-03T14:23:23;32.20;58.20
5899;DHT22;2975;50.956;6.962;2022-08-03T14:25:49;32.10;58.20
5899;DHT22;2975;50.956;6.962;2022-08-03T14:28:15;32.10;58.40
5899;DHT22;2975;50.956;6.962;2022-08-03T14:30:41;32.00;58.60
5899;DHT22;2975;50.956;6.962;2022-08-03T14:33:06;31.80;58.60
5899;DHT22;2975;50.956;6.962;2022-08-03T14:35:32;31.80;59.40
5899;DHT22;2975;50.956;6.962;2022-08-03T14:37:57;31.70;59.10
5899;DHT22;2975;50.956;6.962;2022-08-03T14:40:23;31.80;58.90
5899;DHT22;2975;50.956;6.962;2022-08-03T14:42:49;31.80;59.10
5899;DHT22;2975;50.956;6.962;2022-08-03T14:45:14;31.70;59.60
5899;DHT22;2975;50.956;6.962;2022-08-03T14:47:40;31.70;59.60
5899;DHT22;2975;50.956;6.962;2022-08-03T14:50:08;32.00;59.10
5899;DHT22;2975;50.956;6.962;2022-08-03T14:52:33;32.20;58.20
5899;DHT22;2975;50.956;6.962;2022-08-03T14:54:59;32.40;57.70
5899;DHT22;2975;50.956;6.962;2022-08-03T14:57:25;32.40;57.80
5899;DHT22;2975;50.956;6.962;2022-08-03T14:59:51;32.60;57.20
5899;DHT22;2975;50.956;6.962;2022-08-03T15:02:17;32.60;57.30
5899;DHT22;2975;50.956;6.962;2022-08-03T15:04:42;32.80;56.90
5899;DHT22;2975;50.956;6.962;2022-08-03T15:07:08;33.00;56.60
5899;DHT22;2975;50.956;6.962;2022-08-03T15:09:34;32.90;56.70
5899;DHT22;2975;50.956;6.962;2022-08-03T15:12:00;32.90;56.70
5899;DHT22;2975;50.956;6.962;2022-08-03T15:14:26;32.80;56.20
5899;DHT22;2975;50.956;6.962;2022-08-03T15:16:51;32.90;56.10
5899;DHT22;2975;50.956;6.962;2022-08-03T15:19:17;32.70;57.00
5899;DHT22;2975;50.956;6.962;2022-08-03T15:21:43;32.60;57.30
5899;DHT22;2975;50.956;6.962;2022-08-03T15:24:08;32.60;57.60
5899;DHT22;2975;50.956;6.962;2022-08-03T15:26:34;32.50;57.20
5899;DHT22;2975;50.956;6.962;2022-08-03T15:28:59;32.50;57.20
5899;DHT22;2975;50.956;6.962;2022-08-03T15:31:25;32.50;57.30
5899;DHT22;2975;50.956;6.962;2022-08-03T15:33:51;32.20;59.50
5899;DHT22;2975;50.956;6.962;2022-08-03T15:36:17;32.00;57.50
5899;DHT22;2975;50.956;6.962;2022-08-03T15:38:44;32.00;58.50
5899;DHT22;2975;50.956;6.962;2022-08-03T15:41:12;32.20;57.10
5899;DHT22;2975;50.956;6.962;2022-08-03T15:43:39;32.40;57.10
5899;DHT22;2975;50.956;6.962;2022-08-03T15:46:05;32.50;56.70
5899;DHT22;2975;50.956;6.962;2022-08-03T15:48:31;32.80;56.10
5899;DHT22;2975;50.956;6.962;2022-08-03T15:50:56;32.80;55.80
5899;DHT22;2975;50.956;6.962;2022-08-03T15:53:22;32.70;55.30
5899;DHT22;2975;50.956;6.962;2022-08-03T15:55:47;32.70;56.30
5899;DHT22;2975;50.956;6.962;2022-08-03T15:58:13;32.70;56.00
5899;DHT22;2975;50.956;6.962;2022-08-03T16:00:40;32.70;56.30
5899;DHT22;2975;50.956;6.962;2022-08-03T16:03:06;32.80;56.20
5899;DHT22;2975;50.956;6.962;2022-08-03T16:05:32;32.80;55.70
5899;DHT22;2975;50.956;6.962;2022-08-03T16:07:58;32.90;56.20
5899;DHT22;2975;50.956;6.962;2022-08-03T16:10:23;32.80;55.40
5899;DHT22;2975;50.956;6.962;2022-08-03T16:12:53;32.80;55.20
5899;DHT22;2975;50.956;6.962;2022-08-03T16:15:19;32.70;55.80
5899;DHT22;2975;50.956;6.962;2022-08-03T16:17:44;32.70;55.60
5899;DHT22;2975;50.956;6.962;2022-08-03T16:20:11;32.70;55.70
5899;DHT22;2975;50.956;6.962;2022-08-03T16:22:44;32.70;55.80
5899;DHT22;2975;50.956;6.962;2022-08-03T16:25:12;32.70;56.20
5899;DHT22;2975;50.956;6.962;2022-08-03T16:27:38;33.00;55.40
5899;DHT22;2975;50.956;6.962;2022-08-03T16:30:05;33.00;55.30
5899;DHT22;2975;50.956;6.962;2022-08-03T16:32:32;33.30;54.90
5899;DHT22;2975;50.956;6.962;2022-08-03T16:34:58;33.40;54.70
5899;DHT22;2975;50.956;6.962;2022-08-03T16:37:24;33.40;54.70
5899;DHT22;2975;50.956;6.962;2022-08-03T16:39:50;33.40;54.50
5899;DHT22;2975;50.956;6.962;2022-08-03T16:42:15;33.40;54.10